Winona

*Note: All times are displayed in the local standard time of the station location.
**Rain - Equipment is designed to accurately record liquid precipitation; under conditions when precipitation is not in liquid form, the data displayed may not properly reflect rainfall values.

Date Max Temp
(°C)
Min Temp
(°C)
Avg Temp
(°C)
Rain (mm) Avg RH (%) Solar Rad (kJ/m2)
Fri, Dec 14, 2018 6.6 1.5 4.0 2.8 88.3 1441.7
Thu, Dec 13, 2018 4.2 -3.5 1.1 0.6 93.8 2108.7
Wed, Dec 12, 2018 2.2 -5.5 -0.7 0.0 85.3 1851.0
Tue, Dec 11, 2018 -0.2 -2.4 -0.9 0.0 80.7 673.5
Mon, Dec 10, 2018 0.8 -1.7 -0.2 0.0 79.3 1009.7
Sun, Dec 09, 2018 1.1 -6.2 -2.5 0.0 72.6 5028.6
Sat, Dec 08, 2018 0.1 -5.5 -2.6 0.0 73.8 4824.5
DateTime Avg Temp (°C) Rain (mm) RH (%) Solar Rad (kJ/m2)
Sat, Dec 15, 2018 17:00 3.6 0.0 88.6 3.4
Sat, Dec 15, 2018 16:00 3.6 0.0 86.7 41.2
Sat, Dec 15, 2018 15:00 3.8 0.0 85.8 140.8
Sat, Dec 15, 2018 14:00 4.1 0.0 84.9 313.8
Sat, Dec 15, 2018 13:00 4.2 0.0 87.0 475.1
Sat, Dec 15, 2018 12:00 3.6 0.0 89.1 404.5
Sat, Dec 15, 2018 11:00 3.3 0.0 89.5 312.0
Sat, Dec 15, 2018 10:00 2.8 0.0 91.9 155.5
Sat, Dec 15, 2018 09:00 2.1 0.0 96.7 72.2
Sat, Dec 15, 2018 08:00 1.0 0.0 99.1 2.4
Sat, Dec 15, 2018 07:00 -0.6 0.0 98.8 0.0
Sat, Dec 15, 2018 06:00 -0.9 0.0 98.4 0.0
Sat, Dec 15, 2018 05:00 -0.9 0.0 97.6 0.0
Sat, Dec 15, 2018 04:00 0.2 0.0 96.7 0.0
Sat, Dec 15, 2018 03:00 1.1 0.0 95.6 0.0
Sat, Dec 15, 2018 02:00 1.9 0.0 94.8 0.0
Sat, Dec 15, 2018 01:00 2.8 0.0 92.8 0.0
Sat, Dec 15, 2018 00:00 3.9 0.0 90.2 0.0
Fri, Dec 14, 2018 23:00 4.5 0.0 88.3 0.0
Fri, Dec 14, 2018 22:00 5.1 0.0 85.5 0.0
Fri, Dec 14, 2018 21:00 5.1 0.0 84.3 0.0
Fri, Dec 14, 2018 20:00 3.7 0.0 92.8 0.0
Fri, Dec 14, 2018 19:00 2.4 0.0 94.1 0.0
Fri, Dec 14, 2018 18:00 2.7 0.0 88.8 0.0
Fri, Dec 14, 2018 17:00 5.6 0.0 80.1 34.6
Fri, Dec 14, 2018 16:00 6.4 0.0 82.7 176.6
Fri, Dec 14, 2018 15:00 6.0 0.0 86.4 255.6
Fri, Dec 14, 2018 14:00 5.5 0.0 90.8 243.8
Fri, Dec 14, 2018 13:00 4.5 0.0 94.5 261.4
Fri, Dec 14, 2018 12:00 4.7 0.0 92.5 205.9
Fri, Dec 14, 2018 11:00 4.3 1.4 92.3 126.0
Fri, Dec 14, 2018 10:00 4.2 1.2 90.0 102.8
Fri, Dec 14, 2018 09:00 3.6 0.2 88.9 34.4
Fri, Dec 14, 2018 08:00 3.8 0.0 86.4 0.6
Fri, Dec 14, 2018 07:00 3.8 0.0 84.8 0.0
Fri, Dec 14, 2018 06:00 3.5 0.0 85.5 0.0
Fri, Dec 14, 2018 05:00 3.2 0.0 85.9 0.0
Fri, Dec 14, 2018 04:00 3.0 0.0 86.0 0.0
Fri, Dec 14, 2018 03:00 2.5 0.0 89.8 0.0
Fri, Dec 14, 2018 02:00 2.4 0.0 90.2 0.0
Fri, Dec 14, 2018 01:00 2.4 0.0 87.9 0.0
Fri, Dec 14, 2018 00:00 2.2 0.0 87.2 0.0
Thu, Dec 13, 2018 23:00 1.8 0.0 88.4 0.0
Thu, Dec 13, 2018 22:00 1.7 0.0 90.2 0.0
Thu, Dec 13, 2018 21:00 0.5 0.0 96.0 0.0
Thu, Dec 13, 2018 20:00 0.4 0.0 95.5 0.0
Thu, Dec 13, 2018 19:00 1.6 0.0 92.6 0.0
Thu, Dec 13, 2018 18:00 2.8 0.0 91.1 0.0


asterix Register now to access more data! asterix